Time;durP1;ratioP1;P1;durP2;ratioP2;P2;SDS_P1;SDS_P2;PMS_P1;PMS_P2;Temp;Humidity;BMP_temperature;BMP_pressure;BME280_temperature;BME280_humidity;BME280_pressure;Samples;Min_cycle;Max_cycle;Signal;HPM_P1;HPM_P2
2023/01/10 00:00:50;;;;;;;0.80;0.80;;;;;;;;;;5045241;28;20848;-79
2023/01/10 00:03:17;;;;;;;1.50;0.80;;;;;;;;;;5031027;28;20388;-79
2023/01/10 00:05:43;;;;;;;1.13;0.85;;;;;;;;;;5025649;28;20396;-79
2023/01/10 00:08:11;;;;;;;1.17;1.08;;;;;;;;;;5030134;28;20792;-79
2023/01/10 00:10:37;;;;;;;1.73;1.20;;;;;;;;;;5032728;28;20387;-79
2023/01/10 00:15:48;;;;;;;1.58;1.30;;;;;;;;;;5032810;28;20879;-79
2023/01/10 00:18:14;;;;;;;1.40;1.20;;;;;;;;;;5032813;28;20460;-79
2023/01/10 00:20:40;;;;;;;1.42;1.33;;;;;;;;;;5032571;28;20390;-79
2023/01/10 00:23:06;;;;;;;1.40;1.30;;;;;;;;;;5032637;28;20387;-79
2023/01/10 00:25:33;;;;;;;1.25;1.00;;;;;;;;;;5032401;28;20424;-80
2023/01/10 00:30:43;;;;;;;1.50;1.38;;;;;;;;;;5032664;28;20394;-80
2023/01/10 00:33:16;;;;;;;1.50;1.40;;;;;;;;;;5032418;28;20376;-79
2023/01/10 00:35:42;;;;;;;1.20;1.10;;;;;;;;;;5032425;28;20473;-79
2023/01/10 00:38:08;;;;;;;1.30;1.20;;;;;;;;;;5033729;28;20434;-79
2023/01/10 00:40:34;;;;;;;1.23;1.00;;;;;;;;;;5031898;28;20947;-80
2023/01/10 00:45:45;;;;;;;1.13;1.10;;;;;;;;;;5031730;28;20386;-79
2023/01/10 00:48:12;;;;;;;1.60;1.10;;;;;;;;;;5021447;28;20472;-79
2023/01/10 00:50:38;;;;;;;1.20;1.10;;;;;;;;;;5047149;28;20416;-79
2023/01/10 00:53:04;;;;;;;1.63;1.20;;;;;;;;;;5051987;28;20374;-79
2023/01/10 00:55:31;;;;;;;1.10;1.00;;;;;;;;;;5051991;28;20376;-79
2023/01/10 00:57:57;;;;;;;1.13;1.03;;;;;;;;;;5034256;28;20395;-79
2023/01/10 01:00:23;;;;;;;1.17;1.08;;;;;;;;;;5047963;28;20811;-79
2023/01/10 01:02:50;;;;;;;1.63;1.25;;;;;;;;;;5031954;28;20474;-79
2023/01/10 01:05:16;;;;;;;1.55;1.20;;;;;;;;;;5051849;28;20401;-80
2023/01/10 01:07:42;;;;;;;1.92;1.20;;;;;;;;;;5051111;28;20391;-79
2023/01/10 01:10:27;;;;;;;1.40;1.20;;;;;;;;;;5032163;28;20458;-79
2023/01/10 01:12:54;;;;;;;1.20;1.10;;;;;;;;;;5031881;28;20440;-79
2023/01/10 01:15:20;;;;;;;1.83;1.20;;;;;;;;;;5030369;28;20737;-80
2023/01/10 01:17:46;;;;;;;1.30;1.20;;;;;;;;;;5033729;28;20859;-79
2023/01/10 01:20:12;;;;;;;1.83;1.10;;;;;;;;;;5033653;28;20846;-79
2023/01/10 01:22:39;;;;;;;1.33;1.23;;;;;;;;;;5051648;28;20480;-79
2023/01/10 01:25:05;;;;;;;2.50;1.40;;;;;;;;;;5033609;28;20895;-79
2023/01/10 01:27:31;;;;;;;1.33;1.20;;;;;;;;;;5051569;28;20381;-80
2023/01/10 01:29:57;;;;;;;2.00;1.40;;;;;;;;;;5051565;28;20747;-79
2023/01/10 01:32:24;;;;;;;1.97;1.60;;;;;;;;;;5051599;28;20438;-79
2023/01/10 01:34:50;;;;;;;3.13;1.48;;;;;;;;;;5051663;28;20861;-80
2023/01/10 01:37:18;;;;;;;3.30;1.60;;;;;;;;;;5051488;28;20468;-79
2023/01/10 01:39:45;;;;;;;2.05;1.40;;;;;;;;;;5050968;28;20408;-79
2023/01/10 01:42:37;;;;;;;1.80;1.58;;;;;;;;;;5017025;28;20431;-80
2023/01/10 01:45:22;;;;;;;1.92;1.58;;;;;;;;;;5016248;28;20937;-79
2023/01/10 01:48:00;;;;;;;2.08;1.80;;;;;;;;;;5033431;28;20489;-80
2023/01/10 01:50:32;;;;;;;2.85;1.80;;;;;;;;;;5051604;28;20526;-80
2023/01/10 01:52:59;;;;;;;2.20;1.33;;;;;;;;;;5055361;28;20906;-79
2023/01/10 01:55:26;;;;;;;1.88;1.17;;;;;;;;;;5037680;28;20385;-80
2023/01/10 01:57:55;;;;;;;1.55;0.90;;;;;;;;;;5031437;28;20446;-79
2023/01/10 02:00:21;;;;;;;1.75;0.90;;;;;;;;;;5035147;28;20387;-79
2023/01/10 02:02:50;;;;;;;1.05;0.60;;;;;;;;;;5035251;28;20387;-79
2023/01/10 02:05:17;;;;;;;1.25;0.80;;;;;;;;;;5035022;28;20466;-79
2023/01/10 02:07:45;;;;;;;0.95;0.50;;;;;;;;;;5055051;28;20384;-79
2023/01/10 02:10:17;;;;;;;1.40;0.70;;;;;;;;;;5055023;28;20392;-80
2023/01/10 02:12:44;;;;;;;0.40;0.40;;;;;;;;;;5054780;28;20381;-78
2023/01/10 02:15:11;;;;;;;1.40;0.40;;;;;;;;;;5054844;28;20796;-79
2023/01/10 02:17:37;;;;;;;0.60;0.50;;;;;;;;;;5054945;28;20476;-79
2023/01/10 02:20:03;;;;;;;0.30;0.30;;;;;;;;;;5054955;28;20384;-79
2023/01/10 02:22:47;;;;;;;0.30;0.22;;;;;;;;;;5054900;28;20377;-79
2023/01/10 02:25:43;;;;;;;1.00;0.30;;;;;;;;;;5036867;28;20407;-78
2023/01/10 02:28:21;;;;;;;0.47;0.30;;;;;;;;;;5054797;28;20381;-79
2023/01/10 02:31:06;;;;;;;0.57;0.40;;;;;;;;;;5054547;28;20491;-79
2023/01/10 02:34:07;;;;;;;0.63;0.32;;;;;;;;;;5043609;28;20882;-79
2023/01/10 02:36:50;;;;;;;0.70;0.30;;;;;;;;;;4962837;28;20390;-79
2023/01/10 02:39:23;;;;;;;0.73;0.50;;;;;;;;;;5043255;28;20444;-79
2023/01/10 02:42:08;;;;;;;0.95;0.50;;;;;;;;;;5053144;28;20502;-79
2023/01/10 02:44:34;;;;;;;1.40;0.70;;;;;;;;;;5053982;28;20453;-79
2023/01/10 02:47:02;;;;;;;1.13;0.70;;;;;;;;;;5054407;28;20378;-79
2023/01/10 02:49:28;;;;;;;1.70;1.00;;;;;;;;;;5046405;28;20652;-79
2023/01/10 02:51:55;;;;;;;1.10;0.75;;;;;;;;;;5054253;28;20875;-80
2023/01/10 02:54:25;;;;;;;2.20;0.90;;;;;;;;;;5054175;28;20408;-79
2023/01/10 02:56:51;;;;;;;1.42;0.93;;;;;;;;;;5054244;28;20422;-79
2023/01/10 02:59:26;;;;;;;1.67;1.05;;;;;;;;;;5054019;28;20396;-78
2023/01/10 03:01:52;;;;;;;2.53;1.00;;;;;;;;;;5022912;28;20870;-79
2023/01/10 03:04:27;;;;;;;2.38;1.10;;;;;;;;;;5053967;28;20413;-79
2023/01/10 03:06:58;;;;;;;2.95;1.30;;;;;;;;;;5054025;28;20372;-79
2023/01/10 03:09:59;;;;;;;3.05;1.30;;;;;;;;;;5053981;28;20435;-79
2023/01/10 03:12:46;;;;;;;2.85;1.23;;;;;;;;;;4982469;28;21585;-80
2023/01/10 03:15:14;;;;;;;2.97;1.10;;;;;;;;;;5049756;28;20390;-79
2023/01/10 03:17:41;;;;;;;3.38;1.30;;;;;;;;;;5036610;28;20389;-79
2023/01/10 03:20:08;;;;;;;1.92;1.02;;;;;;;;;;5054025;28;20435;-79
2023/01/10 03:22:35;;;;;;;3.65;1.30;;;;;;;;;;5053797;28;20378;-79
2023/01/10 03:25:03;;;;;;;2.88;0.98;;;;;;;;;;5053809;28;20452;-79
2023/01/10 03:27:32;;;;;;;2.65;1.20;;;;;;;;;;5053744;28;20388;-79
2023/01/10 03:30:04;;;;;;;1.50;1.00;;;;;;;;;;5053647;28;20374;-79
2023/01/10 03:32:31;;;;;;;2.28;1.02;;;;;;;;;;5053643;28;20418;-80
2023/01/10 03:34:58;;;;;;;2.45;1.00;;;;;;;;;;5053618;28;20926;-79
2023/01/10 03:37:39;;;;;;;1.75;0.90;;;;;;;;;;5053468;28;20399;-79
2023/01/10 03:40:17;;;;;;;4.60;1.10;;;;;;;;;;5053055;28;20545;-79
2023/01/10 03:45:41;;;;;;;3.20;1.20;;;;;;;;;;5053074;28;20413;-79
2023/01/10 03:48:08;;;;;;;4.55;1.45;;;;;;;;;;5053197;28;20390;-79
2023/01/10 03:50:34;;;;;;;4.68;1.20;;;;;;;;;;5053200;28;20389;-80
2023/01/10 03:53:00;;;;;;;4.77;1.20;;;;;;;;;;5047979;28;20475;-79
2023/01/10 03:55:28;;;;;;;3.05;1.13;;;;;;;;;;5018798;28;20382;-79
2023/01/10 03:57:54;;;;;;;4.97;1.20;;;;;;;;;;5052979;28;20389;-79
2023/01/10 04:00:20;;;;;;;4.35;1.38;;;;;;;;;;5049589;28;20387;-79
2023/01/10 04:02:46;;;;;;;4.95;1.30;;;;;;;;;;5047847;28;20388;-79
2023/01/10 04:05:12;;;;;;;5.53;1.60;;;;;;;;;;5052896;28;20488;-80
2023/01/10 04:07:38;;;;;;;4.18;1.58;;;;;;;;;;5052828;28;20815;-79
2023/01/10 04:10:06;;;;;;;5.18;1.45;;;;;;;;;;5052687;28;20743;-79
2023/01/10 04:12:32;;;;;;;3.90;1.42;;;;;;;;;;5052760;28;20382;-79
2023/01/10 04:14:57;;;;;;;3.47;1.40;;;;;;;;;;5033838;28;20409;-79
2023/01/10 04:17:23;;;;;;;2.92;1.10;;;;;;;;;;5052201;28;20397;-80
2023/01/10 04:19:49;;;;;;;5.70;1.50;;;;;;;;;;5052471;28;20482;-78
2023/01/10 04:22:15;;;;;;;4.15;1.30;;;;;;;;;;5034558;28;20405;-79
2023/01/10 04:24:43;;;;;;;5.45;1.30;;;;;;;;;;5052413;28;20493;-79
2023/01/10 04:27:09;;;;;;;3.65;1.10;;;;;;;;;;5041472;28;20470;-79
2023/01/10 04:29:35;;;;;;;4.60;1.48;;;;;;;;;;5013917;28;20396;-79
2023/01/10 04:32:01;;;;;;;4.35;1.35;;;;;;;;;;5035959;28;20389;-79
2023/01/10 04:34:27;;;;;;;4.43;1.42;;;;;;;;;;5031617;28;20405;-79
2023/01/10 04:36:53;;;;;;;6.13;1.52;;;;;;;;;;5033908;28;20831;-81
2023/01/10 04:39:19;;;;;;;5.63;1.50;;;;;;;;;;5035289;28;20374;-79
2023/01/10 04:41:45;;;;;;;4.10;1.30;;;;;;;;;;5031194;28;20876;-79
2023/01/10 04:44:11;;;;;;;4.78;1.50;;;;;;;;;;5031092;28;20442;-80
2023/01/10 04:46:37;;;;;;;3.75;1.27;;;;;;;;;;5031245;28;20818;-80
2023/01/10 04:49:03;;;;;;;4.53;1.40;;;;;;;;;;5030773;28;20410;-80
2023/01/10 04:51:29;;;;;;;3.08;1.20;;;;;;;;;;5033457;28;20383;-79
2023/01/10 04:53:55;;;;;;;4.93;1.45;;;;;;;;;;5025993;28;20449;-80
2023/01/10 04:56:22;;;;;;;6.07;1.60;;;;;;;;;;5030152;28;20387;-80
2023/01/10 04:58:48;;;;;;;4.82;1.50;;;;;;;;;;5030282;28;20391;-80
2023/01/10 05:01:19;;;;;;;4.00;1.40;;;;;;;;;;5029879;28;20383;-80
2023/01/10 05:03:47;;;;;;;4.05;1.67;;;;;;;;;;5049891;28;20933;-80
2023/01/10 05:06:13;;;;;;;3.63;1.40;;;;;;;;;;5049909;28;20388;-80
2023/01/10 05:08:39;;;;;;;5.00;1.70;;;;;;;;;;5050506;28;20393;-80
2023/01/10 05:11:05;;;;;;;5.18;1.60;;;;;;;;;;5051682;28;20384;-79
2023/01/10 05:13:32;;;;;;;5.13;1.48;;;;;;;;;;5034027;28;20382;-80
2023/01/10 05:15:58;;;;;;;5.30;1.88;;;;;;;;;;5051754;28;20854;-80
2023/01/10 05:18:25;;;;;;;4.88;1.70;;;;;;;;;;5051702;28;20388;-80
2023/01/10 05:20:51;;;;;;;6.77;1.60;;;;;;;;;;5033604;28;20384;-79
2023/01/10 05:23:17;;;;;;;5.88;1.60;;;;;;;;;;5021189;28;20393;-79
2023/01/10 05:25:43;;;;;;;5.88;1.88;;;;;;;;;;5022934;28;20413;-80
2023/01/10 05:28:09;;;;;;;6.45;1.90;;;;;;;;;;5025658;28;20546;-80
2023/01/10 05:30:35;;;;;;;6.20;1.90;;;;;;;;;;5030966;28;20484;-80
2023/01/10 05:33:03;;;;;;;5.45;1.30;;;;;;;;;;5030806;28;20864;-80
2023/01/10 05:35:29;;;;;;;5.70;1.60;;;;;;;;;;5031555;28;20398;-80
2023/01/10 05:37:55;;;;;;;5.75;1.85;;;;;;;;;;5030802;28;20867;-80
2023/01/10 05:40:21;;;;;;;4.78;1.70;;;;;;;;;;5033077;28;20946;-80
2023/01/10 05:42:47;;;;;;;5.30;1.83;;;;;;;;;;5033505;28;20382;-80
2023/01/10 05:45:13;;;;;;;3.10;1.45;;;;;;;;;;5033974;28;20814;-80
2023/01/10 05:47:39;;;;;;;2.77;1.30;;;;;;;;;;5033749;28;20456;-80
2023/01/10 05:50:05;;;;;;;5.28;1.63;;;;;;;;;;5024229;28;20382;-80
2023/01/10 05:52:31;;;;;;;4.35;1.40;;;;;;;;;;5031165;28;20387;-80
2023/01/10 05:54:57;;;;;;;3.70;1.40;;;;;;;;;;5033193;28;20397;-80
2023/01/10 05:57:23;;;;;;;5.23;1.70;;;;;;;;;;5051295;28;20382;-80
2023/01/10 05:59:50;;;;;;;4.05;1.60;;;;;;;;;;5051169;28;20400;-80
2023/01/10 06:02:16;;;;;;;4.03;1.65;;;;;;;;;;5020494;28;20392;-80
2023/01/10 06:04:42;;;;;;;6.20;3.25;;;;;;;;;;5051057;28;20439;-79
2023/01/10 06:07:08;;;;;;;8.85;5.53;;;;;;;;;;5042492;28;20900;-81
2023/01/10 06:09:34;;;;;;;4.43;1.85;;;;;;;;;;5035963;28;20510;-80
2023/01/10 06:12:00;;;;;;;7.30;2.10;;;;;;;;;;5031175;28;20470;-80
2023/01/10 06:14:26;;;;;;;6.35;2.22;;;;;;;;;;5032550;28;20741;-80
2023/01/10 06:16:52;;;;;;;6.80;3.05;;;;;;;;;;5029841;28;20478;-81
2023/01/10 06:19:18;;;;;;;4.50;1.42;;;;;;;;;;5030105;28;20391;-80
2023/01/10 06:21:44;;;;;;;4.47;1.75;;;;;;;;;;5030089;28;20399;-81
2023/01/10 06:24:10;;;;;;;5.60;3.20;;;;;;;;;;5030646;28;20443;-79
2023/01/10 06:26:36;;;;;;;5.95;2.00;;;;;;;;;;5030153;28;20907;-78
2023/01/10 06:29:02;;;;;;;5.28;1.92;;;;;;;;;;5030619;28;20412;-79
2023/01/10 06:31:28;;;;;;;5.20;2.08;;;;;;;;;;5030978;28;20405;-80
2023/01/10 06:33:54;;;;;;;6.50;2.15;;;;;;;;;;5030840;28;20461;-81
2023/01/10 06:36:20;;;;;;;4.53;1.75;;;;;;;;;;5013319;28;20734;-80
2023/01/10 06:38:46;;;;;;;5.22;1.75;;;;;;;;;;5033853;28;20398;-79
2023/01/10 06:41:12;;;;;;;4.60;1.77;;;;;;;;;;5034181;28;20453;-80
2023/01/10 06:43:44;;;;;;;5.57;2.00;;;;;;;;;;5036976;28;20462;-81
2023/01/10 06:46:10;;;;;;;4.75;2.05;;;;;;;;;;5035311;28;20383;-80
2023/01/10 06:48:37;;;;;;;4.22;1.90;;;;;;;;;;5034509;28;20390;-79
2023/01/10 06:51:06;;;;;;;6.80;2.40;;;;;;;;;;5027659;28;20428;-80
2023/01/10 06:53:32;;;;;;;5.70;2.40;;;;;;;;;;5032610;28;20391;-80
2023/01/10 06:55:58;;;;;;;5.85;2.15;;;;;;;;;;5019410;28;20880;-80
2023/01/10 06:58:24;;;;;;;5.47;2.05;;;;;;;;;;5031159;28;20387;-81
2023/01/10 07:00:50;;;;;;;4.07;1.80;;;;;;;;;;5030878;28;20390;-80
2023/01/10 07:03:16;;;;;;;6.28;2.40;;;;;;;;;;5032868;28;20741;-80
2023/01/10 07:05:42;;;;;;;5.28;2.15;;;;;;;;;;5031240;28;20519;-80
2023/01/10 07:08:09;;;;;;;5.18;2.17;;;;;;;;;;5032179;28;20844;-80
2023/01/10 07:10:35;;;;;;;5.35;1.92;;;;;;;;;;5032113;28;20444;-80
2023/01/10 07:13:01;;;;;;;8.30;2.58;;;;;;;;;;5033464;28;20379;-80
2023/01/10 07:15:28;;;;;;;4.60;1.90;;;;;;;;;;5033542;28;20463;-80
2023/01/10 07:17:57;;;;;;;5.00;2.00;;;;;;;;;;5035442;28;20766;-80
2023/01/10 07:20:23;;;;;;;6.50;2.30;;;;;;;;;;5053673;28;20395;-80
2023/01/10 07:22:56;;;;;;;10.18;2.35;;;;;;;;;;5053763;28;20743;-80
2023/01/10 07:25:22;;;;;;;5.68;1.92;;;;;;;;;;5035881;28;20428;-80
2023/01/10 07:27:48;;;;;;;7.43;2.20;;;;;;;;;;5053759;28;20881;-80
2023/01/10 07:30:14;;;;;;;7.05;2.30;;;;;;;;;;5053348;28;20472;-80
2023/01/10 07:32:40;;;;;;;7.03;2.30;;;;;;;;;;5050041;28;20406;-80
2023/01/10 07:35:06;;;;;;;6.75;2.20;;;;;;;;;;5034527;28;20387;-81
2023/01/10 07:37:33;;;;;;;7.75;2.30;;;;;;;;;;5033372;28;20383;-81
2023/01/10 07:39:59;;;;;;;8.00;2.60;;;;;;;;;;5030522;28;20529;-82
2023/01/10 07:42:25;;;;;;;7.93;2.30;;;;;;;;;;5030713;28;20497;-81
2023/01/10 07:44:51;;;;;;;10.32;2.28;;;;;;;;;;5033058;28;20537;-81
2023/01/10 07:47:17;;;;;;;5.93;2.22;;;;;;;;;;5033361;28;20478;-81
2023/01/10 07:49:43;;;;;;;7.90;2.55;;;;;;;;;;5032069;28;20717;-81
2023/01/10 07:52:09;;;;;;;4.13;1.90;;;;;;;;;;5033278;28;20386;-82
2023/01/10 07:54:35;;;;;;;5.25;2.25;;;;;;;;;;5033232;28;20393;-81
2023/01/10 07:57:01;;;;;;;4.90;2.20;;;;;;;;;;5025782;28;20581;-81
2023/01/10 07:59:27;;;;;;;6.25;2.33;;;;;;;;;;5028660;28;20415;-79
2023/01/10 08:01:53;;;;;;;8.07;2.30;;;;;;;;;;5032983;28;20469;-79
2023/01/10 08:04:20;;;;;;;10.30;4.68;;;;;;;;;;5032956;28;20399;-80
2023/01/10 08:06:46;;;;;;;6.57;2.92;;;;;;;;;;5031844;28;20462;-80
2023/01/10 08:09:12;;;;;;;7.50;2.60;;;;;;;;;;5032799;28;20384;-80
2023/01/10 08:11:38;;;;;;;7.78;2.65;;;;;;;;;;5032371;28;20419;-80
2023/01/10 08:14:04;;;;;;;5.85;2.50;;;;;;;;;;5032828;28;20403;-80
2023/01/10 08:16:30;;;;;;;5.07;2.65;;;;;;;;;;5026082;28;20418;-80
2023/01/10 08:18:56;;;;;;;7.25;2.40;;;;;;;;;;5032244;28;20458;-80
2023/01/10 08:21:22;;;;;;;7.97;2.40;;;;;;;;;;5032583;28;20399;-81
2023/01/10 08:23:50;;;;;;;7.53;2.22;;;;;;;;;;5034411;28;20744;-80
2023/01/10 08:26:16;;;;;;;7.38;2.35;;;;;;;;;;5052494;28;20416;-80
2023/01/10 08:28:42;;;;;;;7.18;2.45;;;;;;;;;;5052335;28;20853;-81
2023/01/10 08:31:09;;;;;;;8.88;2.75;;;;;;;;;;5052296;28;20457;-80
2023/01/10 08:33:37;;;;;;;6.90;2.70;;;;;;;;;;5052438;28;20430;-80
2023/01/10 08:36:03;;;;;;;7.22;2.40;;;;;;;;;;5052260;28;20385;-79
2023/01/10 08:38:29;;;;;;;7.78;2.70;;;;;;;;;;5052242;28;20388;-79
2023/01/10 08:40:58;;;;;;;7.73;2.40;;;;;;;;;;5051902;28;20484;-80
2023/01/10 08:43:24;;;;;;;7.18;2.33;;;;;;;;;;5052212;28;20389;-80
2023/01/10 08:45:50;;;;;;;8.20;2.60;;;;;;;;;;5052073;28;20401;-80
2023/01/10 08:48:16;;;;;;;10.25;2.72;;;;;;;;;;5040014;28;20923;-80
2023/01/10 08:50:42;;;;;;;9.00;2.80;;;;;;;;;;5027831;28;20385;-80
2023/01/10 08:53:09;;;;;;;7.90;2.90;;;;;;;;;;5042015;28;20383;-80
2023/01/10 08:55:37;;;;;;;7.22;2.17;;;;;;;;;;5032081;28;20800;-80
2023/01/10 08:58:03;;;;;;;6.40;2.45;;;;;;;;;;5028700;28;20387;-80
2023/01/10 09:00:29;;;;;;;9.27;2.20;;;;;;;;;;5031475;28;20402;-80
2023/01/10 09:02:55;;;;;;;6.57;2.40;;;;;;;;;;5014118;28;20912;-81
2023/01/10 09:05:21;;;;;;;6.95;3.05;;;;;;;;;;5031403;28;20415;-78
2023/01/10 09:07:47;;;;;;;7.50;2.67;;;;;;;;;;5051615;28;20867;-80
2023/01/10 09:10:13;;;;;;;9.32;4.03;;;;;;;;;;5051415;28;20381;-79
2023/01/10 09:12:55;;;;;;;9.57;5.00;;;;;;;;;;5051650;28;20432;-80
2023/01/10 09:15:21;;;;;;;6.68;2.10;;;;;;;;;;5051658;28;20465;-81
2023/01/10 09:17:48;;;;;;;7.07;2.53;;;;;;;;;;5051647;28;20388;-81
2023/01/10 09:20:15;;;;;;;6.88;2.90;;;;;;;;;;5051492;28;20389;-80
2023/01/10 09:22:41;;;;;;;7.53;2.78;;;;;;;;;;5051574;28;20852;-81
2023/01/10 09:25:07;;;;;;;6.00;3.25;;;;;;;;;;5051558;28;20409;-80
2023/01/10 09:27:33;;;;;;;5.32;2.58;;;;;;;;;;5051474;28;20389;-79
2023/01/10 09:29:59;;;;;;;7.00;2.38;;;;;;;;;;5051558;28;20377;-80
2023/01/10 09:32:25;;;;;;;5.97;2.13;;;;;;;;;;5051481;28;20397;-80
2023/01/10 09:34:51;;;;;;;5.70;2.30;;;;;;;;;;5029096;28;20379;-80
2023/01/10 09:37:17;;;;;;;8.93;2.58;;;;;;;;;;5034133;28;20408;-80
2023/01/10 09:39:43;;;;;;;8.35;2.30;;;;;;;;;;5051282;28;20390;-80
2023/01/10 09:42:18;;;;;;;6.13;2.17;;;;;;;;;;5033585;28;20403;-81
2023/01/10 09:45:03;;;;;;;6.13;2.42;;;;;;;;;;5051328;28;20936;-81
2023/01/10 09:47:44;;;;;;;5.40;1.95;;;;;;;;;;5051292;28;20429;-81
2023/01/10 09:50:25;;;;;;;6.43;1.95;;;;;;;;;;5051307;28;20424;-80
2023/01/10 09:53:10;;;;;;;4.00;2.35;;;;;;;;;;5051203;28;20397;-81
2023/01/10 09:55:38;;;;;;;7.85;2.33;;;;;;;;;;5016647;28;20502;-81
2023/01/10 09:58:06;;;;;;;5.20;1.70;;;;;;;;;;5031192;28;20439;-80
2023/01/10 10:00:48;;;;;;;5.47;2.17;;;;;;;;;;5031200;28;20506;-81
2023/01/10 10:03:20;;;;;;;5.18;1.90;;;;;;;;;;5031213;28;20395;-80
2023/01/10 10:05:47;;;;;;;8.38;1.88;;;;;;;;;;5031258;28;20896;-80
2023/01/10 10:08:17;;;;;;;6.03;1.73;;;;;;;;;;5031348;28;20391;-80
2023/01/10 10:10:48;;;;;;;6.15;1.90;;;;;;;;;;5031329;28;20371;-81
2023/01/10 10:13:35;;;;;;;6.07;1.85;;;;;;;;;;5037477;28;20442;-80
2023/01/10 10:16:12;;;;;;;5.90;1.50;;;;;;;;;;5023572;28;20533;-81
2023/01/10 10:18:44;;;;;;;6.47;2.10;;;;;;;;;;5038571;28;20500;-80
2023/01/10 10:21:16;;;;;;;4.72;1.67;;;;;;;;;;5037566;28;20387;-81
2023/01/10 10:24:00;;;;;;;5.97;1.60;;;;;;;;;;5036046;28;20424;-81
2023/01/10 10:26:26;;;;;;;5.82;1.48;;;;;;;;;;5035372;28;20420;-81
2023/01/10 10:29:00;;;;;;;7.20;1.40;;;;;;;;;;5035262;28;20382;-80
2023/01/10 10:31:41;;;;;;;4.00;1.45;;;;;;;;;;5034766;28;20383;-81
2023/01/10 10:34:26;;;;;;;6.28;1.50;;;;;;;;;;5034788;28;20387;-80
2023/01/10 10:37:04;;;;;;;3.80;1.40;;;;;;;;;;5034815;28;20428;-81
2023/01/10 10:39:35;;;;;;;5.30;1.60;;;;;;;;;;5034326;28;20389;-80
2023/01/10 10:42:02;;;;;;;5.07;1.58;;;;;;;;;;5036808;28;20391;-81
2023/01/10 10:44:44;;;;;;;5.65;1.70;;;;;;;;;;5034643;28;20407;-80
2023/01/10 10:47:13;;;;;;;5.90;1.52;;;;;;;;;;5034814;28;20422;-81
2023/01/10 10:49:55;;;;;;;5.00;1.57;;;;;;;;;;5034378;28;20506;-80
2023/01/10 10:52:25;;;;;;;3.58;1.33;;;;;;;;;;5040639;28;20378;-80
2023/01/10 10:54:52;;;;;;;5.67;1.63;;;;;;;;;;5032980;28;20559;-80
2023/01/10 10:57:18;;;;;;;4.10;1.38;;;;;;;;;;5024721;28;20761;-80
2023/01/10 10:59:46;;;;;;;4.28;1.33;;;;;;;;;;5018144;28;20533;-81
2023/01/10 11:02:32;;;;;;;3.93;1.50;;;;;;;;;;5033399;28;20385;-80
2023/01/10 11:05:03;;;;;;;3.58;1.50;;;;;;;;;;5032940;28;20474;-80
2023/01/10 11:07:33;;;;;;;4.63;1.33;;;;;;;;;;5032632;28;20550;-80
2023/01/10 11:12:29;;;;;;;4.47;1.40;;;;;;;;;;5033362;28;20410;-81
2023/01/10 11:14:55;;;;;;;3.70;1.33;;;;;;;;;;5034046;28;20412;-80
2023/01/10 11:17:24;;;;;;;4.55;1.35;;;;;;;;;;5033896;28;20422;-81
2023/01/10 11:20:05;;;;;;;3.25;1.30;;;;;;;;;;5033957;28;20462;-80
2023/01/10 11:22:36;;;;;;;3.63;1.30;;;;;;;;;;5032749;28;20448;-80
2023/01/10 11:25:02;;;;;;;5.65;1.50;;;;;;;;;;5034172;28;20448;-79
2023/01/10 11:27:30;;;;;;;4.30;1.40;;;;;;;;;;5032925;28;20390;-80
2023/01/10 11:30:03;;;;;;;4.40;1.35;;;;;;;;;;5028823;28;20402;-80
2023/01/10 11:32:37;;;;;;;4.03;1.35;;;;;;;;;;5033687;28;20436;-79
2023/01/10 11:35:09;;;;;;;3.38;1.20;;;;;;;;;;5032153;28;20435;-80
2023/01/10 11:37:36;;;;;;;5.15;1.27;;;;;;;;;;5032119;28;20448;-79
2023/01/10 11:40:14;;;;;;;5.25;1.50;;;;;;;;;;5032985;28;20403;-80
2023/01/10 11:42:40;;;;;;;4.28;1.33;;;;;;;;;;5031898;28;20879;-80
2023/01/10 11:45:32;;;;;;;4.90;1.50;;;;;;;;;;5032978;28;20407;-80
2023/01/10 11:48:17;;;;;;;3.85;1.42;;;;;;;;;;5030733;28;20429;-80
2023/01/10 11:50:49;;;;;;;2.85;1.20;;;;;;;;;;5033308;28;20382;-80
2023/01/10 11:53:33;;;;;;;2.65;1.10;;;;;;;;;;5029374;28;20478;-80
2023/01/10 11:55:59;;;;;;;5.33;1.43;;;;;;;;;;5033163;28;20969;-80
2023/01/10 11:58:30;;;;;;;5.72;1.60;;;;;;;;;;5032276;28;20430;-80
2023/01/10 12:00:56;;;;;;;5.07;1.55;;;;;;;;;;5032643;28;20383;-80
2023/01/10 12:03:36;;;;;;;6.75;1.60;;;;;;;;;;5032954;28;20394;-79
2023/01/10 12:06:03;;;;;;;6.63;1.57;;;;;;;;;;5033008;28;20964;-79
2023/01/10 12:08:37;;;;;;;4.43;1.50;;;;;;;;;;5033033;28;20387;-80
2023/01/10 12:11:06;;;;;;;5.63;1.75;;;;;;;;;;5045321;28;20464;-80
2023/01/10 12:13:58;;;;;;;4.13;1.42;;;;;;;;;;5033342;28;20375;-80
2023/01/10 12:16:25;;;;;;;3.88;1.08;;;;;;;;;;5028453;28;20657;-80
2023/01/10 12:18:53;;;;;;;5.05;1.58;;;;;;;;;;5032778;28;20379;-80
2023/01/10 12:21:21;;;;;;;4.60;1.33;;;;;;;;;;5032737;28;20375;-79
2023/01/10 12:23:48;;;;;;;7.75;2.03;;;;;;;;;;5032565;28;20887;-79
2023/01/10 12:26:15;;;;;;;6.73;1.73;;;;;;;;;;5032711;28;20379;-79
2023/01/10 12:28:46;;;;;;;5.83;1.70;;;;;;;;;;5032527;28;20482;-80
2023/01/10 12:31:13;;;;;;;3.97;1.27;;;;;;;;;;5031437;28;20390;-80
2023/01/10 12:33:45;;;;;;;5.80;1.75;;;;;;;;;;5032333;28;20382;-80
2023/01/10 12:36:33;;;;;;;5.95;1.63;;;;;;;;;;5031963;28;20923;-80
2023/01/10 12:39:08;;;;;;;5.80;1.85;;;;;;;;;;5030914;28;20436;-80
2023/01/10 12:44:36;;;;;;;5.80;1.70;;;;;;;;;;5034323;28;20441;-80
2023/01/10 12:47:18;;;;;;;8.05;2.20;;;;;;;;;;5032120;28;20379;-80
2023/01/10 12:49:57;;;;;;;7.53;1.90;;;;;;;;;;5031970;28;20447;-80
2023/01/10 12:52:44;;;;;;;6.93;1.90;;;;;;;;;;5025048;28;20404;-80
2023/01/10 12:55:20;;;;;;;5.73;1.93;;;;;;;;;;5028285;28;21290;-80
2023/01/10 12:57:47;;;;;;;6.35;1.88;;;;;;;;;;5031025;28;20399;-79
2023/01/10 13:00:33;;;;;;;5.63;1.80;;;;;;;;;;5028252;28;20431;-80
2023/01/10 13:03:00;;;;;;;6.72;2.00;;;;;;;;;;5030926;28;20436;-80
2023/01/10 13:05:27;;;;;;;4.93;1.80;;;;;;;;;;5031466;28;20461;-80
2023/01/10 13:08:02;;;;;;;5.20;1.52;;;;;;;;;;5023268;28;20383;-80
2023/01/10 13:10:29;;;;;;;4.50;1.38;;;;;;;;;;5026285;28;20422;-80
2023/01/10 13:13:02;;;;;;;3.25;1.17;;;;;;;;;;5025226;28;20383;-80
2023/01/10 13:15:30;;;;;;;4.75;1.48;;;;;;;;;;5031898;28;20379;-80
2023/01/10 13:17:59;;;;;;;4.10;1.40;;;;;;;;;;5031877;28;20448;-80
2023/01/10 13:20:28;;;;;;;5.70;1.50;;;;;;;;;;5031677;28;20901;-80
2023/01/10 13:22:56;;;;;;;4.22;1.40;;;;;;;;;;5031691;28;20430;-80
2023/01/10 13:25:24;;;;;;;3.85;1.30;;;;;;;;;;5030925;28;20451;-81
2023/01/10 13:27:57;;;;;;;3.40;1.33;;;;;;;;;;5030432;28;20387;-80
2023/01/10 13:30:28;;;;;;;3.75;1.30;;;;;;;;;;5031169;28;20436;-81
2023/01/10 13:33:00;;;;;;;4.20;1.38;;;;;;;;;;5031631;28;20375;-80
2023/01/10 13:35:28;;;;;;;5.22;1.50;;;;;;;;;;5031512;28;20834;-81
2023/01/10 13:37:55;;;;;;;3.90;1.38;;;;;;;;;;5031589;28;20932;-80
2023/01/10 13:40:24;;;;;;;4.28;1.30;;;;;;;;;;5031237;28;20568;-80
2023/01/10 13:43:18;;;;;;;5.07;1.42;;;;;;;;;;5030650;28;20419;-81
2023/01/10 13:45:44;;;;;;;4.95;1.40;;;;;;;;;;5032174;28;20576;-80
2023/01/10 13:48:24;;;;;;;3.88;1.20;;;;;;;;;;5035574;28;20458;-80
2023/01/10 13:51:11;;;;;;;3.03;1.10;;;;;;;;;;5020447;28;20805;-80
2023/01/10 13:53:37;;;;;;;3.78;1.45;;;;;;;;;;5019617;28;20386;-80
2023/01/10 13:56:03;;;;;;;4.03;1.30;;;;;;;;;;5035982;28;20895;-80
2023/01/10 14:04:27;;;;;;;4.13;1.20;;;;;;;;;;5035919;28;20501;-80
2023/01/10 14:06:56;;;;;;;3.58;1.20;;;;;;;;;;5035476;28;20386;-80
2023/01/10 14:09:22;;;;;;;5.45;1.30;;;;;;;;;;5035441;28;20418;-80
2023/01/10 14:11:51;;;;;;;2.97;1.13;;;;;;;;;;5035279;28;20379;-81
2023/01/10 14:14:20;;;;;;;3.28;1.23;;;;;;;;;;5035234;28;20444;-80
2023/01/10 14:16:48;;;;;;;4.97;1.75;;;;;;;;;;5035486;28;20552;-80
2023/01/10 14:19:26;;;;;;;3.28;1.48;;;;;;;;;;5036956;28;20424;-81
2023/01/10 14:21:54;;;;;;;4.20;1.73;;;;;;;;;;5034898;28;20429;-81
2023/01/10 14:24:25;;;;;;;4.40;1.50;;;;;;;;;;5034972;28;20547;-81
2023/01/10 14:26:52;;;;;;;4.75;2.08;;;;;;;;;;5035120;28;20461;-81
2023/01/10 14:29:19;;;;;;;5.10;1.75;;;;;;;;;;5035021;28;20383;-80
2023/01/10 14:31:46;;;;;;;5.53;1.80;;;;;;;;;;5034711;28;20393;-80
2023/01/10 14:34:28;;;;;;;3.88;1.33;;;;;;;;;;5034802;28;20387;-80
2023/01/10 14:37:15;;;;;;;3.92;1.27;;;;;;;;;;5034754;28;20448;-80
2023/01/10 14:39:42;;;;;;;5.82;1.40;;;;;;;;;;5034452;28;20427;-80
2023/01/10 14:42:13;;;;;;;5.57;1.15;;;;;;;;;;5034698;28;20490;-80
2023/01/10 14:44:44;;;;;;;3.80;1.10;;;;;;;;;;5034456;28;20498;-81
2023/01/10 14:47:29;;;;;;;4.28;1.50;;;;;;;;;;5034576;28;20427;-80
2023/01/10 14:50:05;;;;;;;3.27;1.27;;;;;;;;;;5034355;28;20469;-80
2023/01/10 14:52:31;;;;;;;5.38;1.45;;;;;;;;;;5036300;28;20428;-80
2023/01/10 14:54:57;;;;;;;3.42;1.20;;;;;;;;;;5034490;28;20413;-81
2023/01/10 14:57:24;;;;;;;4.30;1.63;;;;;;;;;;5023677;28;20389;-80
2023/01/10 14:59:50;;;;;;;5.03;1.43;;;;;;;;;;5033016;28;20459;-80
2023/01/10 15:02:26;;;;;;;3.28;1.30;;;;;;;;;;5034650;28;20429;-80
2023/01/10 15:04:56;;;;;;;4.70;1.92;;;;;;;;;;5034289;28;20820;-80
2023/01/10 15:07:24;;;;;;;2.05;1.10;;;;;;;;;;5033937;28;20613;-81
2023/01/10 15:09:51;;;;;;;4.43;1.47;;;;;;;;;;5033963;28;20428;-80
2023/01/10 15:12:19;;;;;;;4.40;1.90;;;;;;;;;;5033920;28;20383;-81
2023/01/10 15:14:45;;;;;;;3.67;2.05;;;;;;;;;;5033337;28;20395;-80
2023/01/10 15:17:16;;;;;;;4.53;2.53;;;;;;;;;;5033334;28;20402;-81
2023/01/10 15:19:43;;;;;;;3.70;1.90;;;;;;;;;;5033680;28;20380;-80